sensor_id;sensor_type;location;lat;lon;timestamp;pressure;altitude;pressure_sealevel;temperature;humidity
55460;BME280;41326;45.302;-122.946;2022-07-26T00:01:04;100306.60;;;23.30;44.04
55460;BME280;41326;45.302;-122.946;2022-07-26T00:03:35;100304.49;;;23.30;44.43
55460;BME280;41326;45.302;-122.946;2022-07-26T00:06:05;100299.90;;;23.27;44.56
55460;BME280;41326;45.302;-122.946;2022-07-26T00:08:36;100293.38;;;23.23;44.49
55460;BME280;41326;45.302;-122.946;2022-07-26T00:11:06;100293.92;;;23.24;44.40
55460;BME280;41326;45.302;-122.946;2022-07-26T00:13:38;100293.89;;;23.22;44.57
55460;BME280;41326;45.302;-122.946;2022-07-26T00:16:07;100293.24;;;23.18;44.31
55460;BME280;41326;45.302;-122.946;2022-07-26T00:18:38;100292.92;;;23.13;44.31
55460;BME280;41326;45.302;-122.946;2022-07-26T00:21:08;100289.60;;;23.05;44.44
55460;BME280;41326;45.302;-122.946;2022-07-26T00:23:38;100286.06;;;23.06;44.31
55460;BME280;41326;45.302;-122.946;2022-07-26T00:26:09;100280.19;;;23.07;44.07
55460;BME280;41326;45.302;-122.946;2022-07-26T00:28:39;100279.56;;;23.10;44.24
55460;BME280;41326;45.302;-122.946;2022-07-26T00:31:09;100277.58;;;23.11;44.16
55460;BME280;41326;45.302;-122.946;2022-07-26T00:33:40;100275.30;;;23.14;44.08
55460;BME280;41326;45.302;-122.946;2022-07-26T00:36:11;100277.22;;;23.16;44.20
55460;BME280;41326;45.302;-122.946;2022-07-26T00:38:41;100273.45;;;23.13;43.72
55460;BME280;41326;45.302;-122.946;2022-07-26T00:41:12;100269.87;;;23.10;44.04
55460;BME280;41326;45.302;-122.946;2022-07-26T00:46:12;100268.34;;;23.05;43.88
55460;BME280;41326;45.302;-122.946;2022-07-26T00:48:42;100263.96;;;23.01;43.91
55460;BME280;41326;45.302;-122.946;2022-07-26T00:51:13;100263.53;;;22.96;43.77
55460;BME280;41326;45.302;-122.946;2022-07-26T00:53:44;100260.78;;;22.97;43.74
55460;BME280;41326;45.302;-122.946;2022-07-26T00:56:14;100258.92;;;23.02;43.74
55460;BME280;41326;45.302;-122.946;2022-07-26T00:58:43;100256.70;;;22.95;43.61
55460;BME280;41326;45.302;-122.946;2022-07-26T01:01:14;100256.30;;;22.94;43.31
55460;BME280;41326;45.302;-122.946;2022-07-26T01:03:46;100252.71;;;22.96;43.65
55460;BME280;41326;45.302;-122.946;2022-07-26T01:06:15;100250.31;;;22.95;43.25
55460;BME280;41326;45.302;-122.946;2022-07-26T01:08:45;100247.31;;;22.97;43.16
55460;BME280;41326;45.302;-122.946;2022-07-26T01:11:15;100244.64;;;22.92;43.18
55460;BME280;41326;45.302;-122.946;2022-07-26T01:13:50;100242.05;;;22.92;43.11
55460;BME280;41326;45.302;-122.946;2022-07-26T01:16:16;100240.11;;;22.91;42.97
55460;BME280;41326;45.302;-122.946;2022-07-26T01:18:46;100239.38;;;22.89;43.11
55460;BME280;41326;45.302;-122.946;2022-07-26T01:21:17;100236.34;;;22.89;43.06
55460;BME280;41326;45.302;-122.946;2022-07-26T01:23:47;100233.70;;;22.89;43.11
55460;BME280;41326;45.302;-122.946;2022-07-26T01:26:17;100232.92;;;22.93;42.72
55460;BME280;41326;45.302;-122.946;2022-07-26T01:28:47;100229.00;;;22.94;42.61
55460;BME280;41326;45.302;-122.946;2022-07-26T01:31:17;100226.86;;;22.87;42.81
55460;BME280;41326;45.302;-122.946;2022-07-26T01:33:48;100226.38;;;22.88;42.66
55460;BME280;41326;45.302;-122.946;2022-07-26T01:36:18;100223.05;;;22.78;42.72
55460;BME280;41326;45.302;-122.946;2022-07-26T01:38:48;100221.72;;;22.73;43.13
55460;BME280;41326;45.302;-122.946;2022-07-26T01:41:18;100219.58;;;22.75;43.47
55460;BME280;41326;45.302;-122.946;2022-07-26T01:43:49;100222.02;;;22.83;43.28
55460;BME280;41326;45.302;-122.946;2022-07-26T01:46:19;100220.67;;;22.79;43.28
55460;BME280;41326;45.302;-122.946;2022-07-26T01:48:50;100220.05;;;22.83;43.17
55460;BME280;41326;45.302;-122.946;2022-07-26T01:51:20;100213.65;;;22.76;43.31
55460;BME280;41326;45.302;-122.946;2022-07-26T01:53:50;100214.31;;;22.78;43.03
55460;BME280;41326;45.302;-122.946;2022-07-26T01:56:20;100213.11;;;22.78;43.25
55460;BME280;41326;45.302;-122.946;2022-07-26T01:58:50;100210.58;;;22.78;43.58
55460;BME280;41326;45.302;-122.946;2022-07-26T02:01:20;100208.56;;;22.79;43.34
55460;BME280;41326;45.302;-122.946;2022-07-26T02:03:51;100205.04;;;22.63;43.54
55460;BME280;41326;45.302;-122.946;2022-07-26T02:06:22;100204.90;;;22.50;43.94
55460;BME280;41326;45.302;-122.946;2022-07-26T02:08:51;100203.96;;;22.50;43.22
55460;BME280;41326;45.302;-122.946;2022-07-26T02:11:21;100206.30;;;22.51;43.98
55460;BME280;41326;45.302;-122.946;2022-07-26T02:13:52;100209.12;;;22.46;42.72
55460;BME280;41326;45.302;-122.946;2022-07-26T02:16:22;100211.18;;;22.46;43.12
55460;BME280;41326;45.302;-122.946;2022-07-26T02:18:52;100209.24;;;22.50;42.49
55460;BME280;41326;45.302;-122.946;2022-07-26T02:21:23;100211.40;;;22.43;43.27
55460;BME280;41326;45.302;-122.946;2022-07-26T02:23:53;100206.57;;;22.37;43.47
55460;BME280;41326;45.302;-122.946;2022-07-26T02:26:23;100208.68;;;22.33;43.42
55460;BME280;41326;45.302;-122.946;2022-07-26T02:28:54;100212.04;;;22.32;42.98
55460;BME280;41326;45.302;-122.946;2022-07-26T02:31:24;100212.22;;;22.30;44.28
55460;BME280;41326;45.302;-122.946;2022-07-26T02:33:54;100212.76;;;22.30;43.80
55460;BME280;41326;45.302;-122.946;2022-07-26T02:36:25;100216.54;;;22.34;45.06
55460;BME280;41326;45.302;-122.946;2022-07-26T02:38:55;100216.54;;;22.40;44.59
55460;BME280;41326;45.302;-122.946;2022-07-26T02:41:25;100217.83;;;22.30;44.14
55460;BME280;41326;45.302;-122.946;2022-07-26T02:43:55;100216.58;;;22.26;43.42
55460;BME280;41326;45.302;-122.946;2022-07-26T02:46:26;100216.84;;;22.26;43.78
55460;BME280;41326;45.302;-122.946;2022-07-26T02:48:56;100219.98;;;22.20;44.60
55460;BME280;41326;45.302;-122.946;2022-07-26T02:51:27;100220.58;;;22.14;43.98
55460;BME280;41326;45.302;-122.946;2022-07-26T02:53:57;100219.96;;;22.20;43.82
55460;BME280;41326;45.302;-122.946;2022-07-26T02:56:28;100215.88;;;22.21;43.90
55460;BME280;41326;45.302;-122.946;2022-07-26T02:58:58;100216.10;;;22.25;43.50
55460;BME280;41326;45.302;-122.946;2022-07-26T03:02:47;100218.68;;;22.21;43.34
55460;BME280;41326;45.302;-122.946;2022-07-26T03:05:17;100221.97;;;22.21;43.36
55460;BME280;41326;45.302;-122.946;2022-07-26T03:07:48;100224.41;;;22.21;43.04
55460;BME280;41326;45.302;-122.946;2022-07-26T03:10:18;100224.43;;;22.19;43.14
55460;BME280;41326;45.302;-122.946;2022-07-26T03:12:49;100227.52;;;22.20;42.92
55460;BME280;41326;45.302;-122.946;2022-07-26T03:15:19;100231.16;;;22.17;42.83
55460;BME280;41326;45.302;-122.946;2022-07-26T03:17:49;100233.13;;;22.18;42.69
55460;BME280;41326;45.302;-122.946;2022-07-26T03:20:20;100237.85;;;22.15;42.65
55460;BME280;41326;45.302;-122.946;2022-07-26T03:22:51;100239.50;;;22.07;42.53
55460;BME280;41326;45.302;-122.946;2022-07-26T03:25:21;100240.57;;;21.99;42.72
55460;BME280;41326;45.302;-122.946;2022-07-26T03:27:53;100238.09;;;21.90;42.61
55460;BME280;41326;45.302;-122.946;2022-07-26T03:30:22;100236.44;;;21.87;42.89
55460;BME280;41326;45.302;-122.946;2022-07-26T03:32:52;100235.30;;;21.80;43.04
55460;BME280;41326;45.302;-122.946;2022-07-26T03:35:22;100236.68;;;21.82;43.35
55460;BME280;41326;45.302;-122.946;2022-07-26T03:37:53;100236.38;;;21.86;43.20
55460;BME280;41326;45.302;-122.946;2022-07-26T03:40:23;100239.46;;;21.87;42.72
55460;BME280;41326;45.302;-122.946;2022-07-26T03:42:53;100241.31;;;21.79;42.72
55460;BME280;41326;45.302;-122.946;2022-07-26T03:45:23;100245.74;;;21.75;43.34
55460;BME280;41326;45.302;-122.946;2022-07-26T03:47:53;100247.15;;;21.76;43.37
55460;BME280;41326;45.302;-122.946;2022-07-26T03:50:23;100250.95;;;21.78;42.98
55460;BME280;41326;45.302;-122.946;2022-07-26T03:52:54;100246.83;;;21.78;43.26
55460;BME280;41326;45.302;-122.946;2022-07-26T03:55:25;100249.87;;;21.75;43.19
55460;BME280;41326;45.302;-122.946;2022-07-26T03:57:55;100249.87;;;21.72;42.71
55460;BME280;41326;45.302;-122.946;2022-07-26T04:00:25;100252.68;;;21.70;43.52
55460;BME280;41326;45.302;-122.946;2022-07-26T04:02:55;100253.72;;;21.65;43.46
55460;BME280;41326;45.302;-122.946;2022-07-26T04:05:26;100256.03;;;21.62;43.50
55460;BME280;41326;45.302;-122.946;2022-07-26T04:07:56;100255.14;;;21.60;43.65
55460;BME280;41326;45.302;-122.946;2022-07-26T04:10:28;100260.39;;;21.57;43.64
55460;BME280;41326;45.302;-122.946;2022-07-26T04:12:57;100263.39;;;21.52;43.51
55460;BME280;41326;45.302;-122.946;2022-07-26T04:15:28;100264.95;;;21.45;43.62
55460;BME280;41326;45.302;-122.946;2022-07-26T04:17:58;100267.26;;;21.42;43.38
55460;BME280;41326;45.302;-122.946;2022-07-26T04:20:29;100267.52;;;21.38;43.77
55460;BME280;41326;45.302;-122.946;2022-07-26T04:22:58;100270.25;;;21.38;43.71
55460;BME280;41326;45.302;-122.946;2022-07-26T04:25:29;100272.65;;;21.35;43.66
55460;BME280;41326;45.302;-122.946;2022-07-26T04:27:59;100268.77;;;21.34;43.81
55460;BME280;41326;45.302;-122.946;2022-07-26T04:30:30;100272.04;;;21.33;43.76
55460;BME280;41326;45.302;-122.946;2022-07-26T04:33:00;100273.54;;;21.29;43.84
55460;BME280;41326;45.302;-122.946;2022-07-26T04:35:31;100274.53;;;21.22;44.12
55460;BME280;41326;45.302;-122.946;2022-07-26T04:38:01;100279.87;;;21.17;44.28
55460;BME280;41326;45.302;-122.946;2022-07-26T04:40:31;100280.91;;;21.13;44.18
55460;BME280;41326;45.302;-122.946;2022-07-26T04:43:02;100283.84;;;21.11;44.87
55460;BME280;41326;45.302;-122.946;2022-07-26T04:45:32;100285.23;;;21.04;44.93
55460;BME280;41326;45.302;-122.946;2022-07-26T04:48:03;100288.63;;;21.02;44.40
55460;BME280;41326;45.302;-122.946;2022-07-26T04:50:33;100288.74;;;21.01;44.17
55460;BME280;41326;45.302;-122.946;2022-07-26T04:53:03;100291.09;;;20.92;44.84
55460;BME280;41326;45.302;-122.946;2022-07-26T04:55:33;100290.98;;;20.87;44.44
55460;BME280;41326;45.302;-122.946;2022-07-26T04:58:04;100291.31;;;20.81;43.83
55460;BME280;41326;45.302;-122.946;2022-07-26T05:00:34;100289.17;;;20.79;44.63
55460;BME280;41326;45.302;-122.946;2022-07-26T05:03:05;100290.08;;;20.74;44.99
55460;BME280;41326;45.302;-122.946;2022-07-26T05:05:37;100290.05;;;20.67;44.98
55460;BME280;41326;45.302;-122.946;2022-07-26T05:08:06;100286.44;;;20.69;44.74
55460;BME280;41326;45.302;-122.946;2022-07-26T05:10:37;100289.04;;;20.64;44.70
55460;BME280;41326;45.302;-122.946;2022-07-26T05:13:07;100293.85;;;20.60;44.58
55460;BME280;41326;45.302;-122.946;2022-07-26T05:15:37;100291.86;;;20.58;44.65
55460;BME280;41326;45.302;-122.946;2022-07-26T05:18:09;100301.66;;;20.56;44.71
55460;BME280;41326;45.302;-122.946;2022-07-26T05:20:39;100302.43;;;20.55;44.80
55460;BME280;41326;45.302;-122.946;2022-07-26T05:23:08;100301.69;;;20.51;44.84
55460;BME280;41326;45.302;-122.946;2022-07-26T05:25:39;100300.62;;;20.45;43.68
55460;BME280;41326;45.302;-122.946;2022-07-26T05:28:09;100302.72;;;20.42;44.50
55460;BME280;41326;45.302;-122.946;2022-07-26T05:30:40;100299.97;;;20.37;44.48
55460;BME280;41326;45.302;-122.946;2022-07-26T05:33:10;100300.72;;;20.33;44.78
55460;BME280;41326;45.302;-122.946;2022-07-26T05:35:40;100299.74;;;20.37;44.43
55460;BME280;41326;45.302;-122.946;2022-07-26T05:38:11;100296.05;;;20.37;44.54
55460;BME280;41326;45.302;-122.946;2022-07-26T05:40:41;100300.36;;;20.37;44.33
55460;BME280;41326;45.302;-122.946;2022-07-26T05:43:11;100300.42;;;20.36;43.63
55460;BME280;41326;45.302;-122.946;2022-07-26T05:45:42;100300.00;;;20.32;44.11
55460;BME280;41326;45.302;-122.946;2022-07-26T05:48:12;100302.00;;;20.29;43.82
55460;BME280;41326;45.302;-122.946;2022-07-26T05:50:42;100297.93;;;20.24;44.32
55460;BME280;41326;45.302;-122.946;2022-07-26T05:53:13;100301.08;;;20.20;44.49
55460;BME280;41326;45.302;-122.946;2022-07-26T05:55:43;100300.84;;;20.22;44.27
55460;BME280;41326;45.302;-122.946;2022-07-26T05:58:14;100301.46;;;20.19;44.36
55460;BME280;41326;45.302;-122.946;2022-07-26T06:00:44;100302.51;;;20.17;43.68
55460;BME280;41326;45.302;-122.946;2022-07-26T06:03:15;100302.87;;;20.12;44.13
55460;BME280;41326;45.302;-122.946;2022-07-26T06:05:45;100307.24;;;20.09;44.29
55460;BME280;41326;45.302;-122.946;2022-07-26T06:08:16;100311.80;;;20.08;44.39
55460;BME280;41326;45.302;-122.946;2022-07-26T06:10:46;100313.41;;;20.05;44.16
55460;BME280;41326;45.302;-122.946;2022-07-26T06:13:17;100313.66;;;20.02;44.08
55460;BME280;41326;45.302;-122.946;2022-07-26T06:15:46;100314.53;;;20.01;44.07
55460;BME280;41326;45.302;-122.946;2022-07-26T06:18:17;100316.44;;;19.99;44.08
55460;BME280;41326;45.302;-122.946;2022-07-26T06:20:48;100318.41;;;19.94;43.84
55460;BME280;41326;45.302;-122.946;2022-07-26T06:23:18;100317.51;;;20.11;44.70
55460;BME280;41326;45.302;-122.946;2022-07-26T06:25:48;100317.02;;;20.30;44.82
55460;BME280;41326;45.302;-122.946;2022-07-26T06:28:18;100318.60;;;20.31;44.18
55460;BME280;41326;45.302;-122.946;2022-07-26T06:30:49;100324.32;;;20.26;43.55
55460;BME280;41326;45.302;-122.946;2022-07-26T06:33:19;100330.09;;;20.20;43.81
55460;BME280;41326;45.302;-122.946;2022-07-26T06:35:49;100334.80;;;20.07;43.83
55460;BME280;41326;45.302;-122.946;2022-07-26T06:38:20;100336.27;;;20.02;43.90
55460;BME280;41326;45.302;-122.946;2022-07-26T06:40:50;100340.98;;;20.05;44.49
55460;BME280;41326;45.302;-122.946;2022-07-26T06:43:20;100339.22;;;20.29;44.57
55460;BME280;41326;45.302;-122.946;2022-07-26T06:45:51;100340.81;;;20.39;44.88
55460;BME280;41326;45.302;-122.946;2022-07-26T06:48:21;100346.44;;;20.37;43.73
55460;BME280;41326;45.302;-122.946;2022-07-26T06:50:51;100346.80;;;20.29;43.74
55460;BME280;41326;45.302;-122.946;2022-07-26T06:53:22;100345.25;;;20.23;43.65
55460;BME280;41326;45.302;-122.946;2022-07-26T06:55:51;100348.64;;;20.14;43.98
55460;BME280;41326;45.302;-122.946;2022-07-26T06:58:22;100349.15;;;20.14;44.46
55460;BME280;41326;45.302;-122.946;2022-07-26T07:00:52;100348.36;;;20.36;44.44
55460;BME280;41326;45.302;-122.946;2022-07-26T07:03:22;100351.28;;;20.50;44.52
55460;BME280;41326;45.302;-122.946;2022-07-26T07:05:53;100349.24;;;20.63;44.45
55460;BME280;41326;45.302;-122.946;2022-07-26T07:08:23;100349.93;;;20.51;43.03
55460;BME280;41326;45.302;-122.946;2022-07-26T07:10:54;100351.12;;;20.35;43.55
55460;BME280;41326;45.302;-122.946;2022-07-26T07:13:25;100358.31;;;20.17;44.03
55460;BME280;41326;45.302;-122.946;2022-07-26T07:15:55;100359.92;;;20.40;44.61
55460;BME280;41326;45.302;-122.946;2022-07-26T07:18:25;100361.29;;;20.50;45.17
55460;BME280;41326;45.302;-122.946;2022-07-26T07:20:55;100364.16;;;20.59;45.24
55460;BME280;41326;45.302;-122.946;2022-07-26T07:23:26;100367.52;;;20.65;45.43
55460;BME280;41326;45.302;-122.946;2022-07-26T07:25:56;100367.17;;;20.74;45.47
55460;BME280;41326;45.302;-122.946;2022-07-26T07:28:26;100370.03;;;20.89;45.32
55460;BME280;41326;45.302;-122.946;2022-07-26T07:30:57;100372.21;;;20.92;45.55
55460;BME280;41326;45.302;-122.946;2022-07-26T07:33:27;100372.26;;;20.85;44.56
55460;BME280;41326;45.302;-122.946;2022-07-26T07:35:57;100370.21;;;20.66;44.03
55460;BME280;41326;45.302;-122.946;2022-07-26T07:38:28;100367.60;;;20.51;43.34
55460;BME280;41326;45.302;-122.946;2022-07-26T07:40:58;100369.69;;;20.36;44.31
55460;BME280;41326;45.302;-122.946;2022-07-26T07:43:29;100371.30;;;20.21;43.46
55460;BME280;41326;45.302;-122.946;2022-07-26T07:45:59;100373.00;;;20.31;45.12
55460;BME280;41326;45.302;-122.946;2022-07-26T07:48:29;100372.13;;;20.48;45.27
55460;BME280;41326;45.302;-122.946;2022-07-26T07:50:59;100368.73;;;20.51;45.65
55460;BME280;41326;45.302;-122.946;2022-07-26T07:53:30;100371.85;;;20.62;46.12
55460;BME280;41326;45.302;-122.946;2022-07-26T07:56:00;100372.04;;;20.70;46.80
55460;BME280;41326;45.302;-122.946;2022-07-26T07:58:31;100373.06;;;20.76;47.07
55460;BME280;41326;45.302;-122.946;2022-07-26T08:01:01;100368.54;;;20.80;47.22
55460;BME280;41326;45.302;-122.946;2022-07-26T08:03:31;100367.13;;;20.75;45.87
55460;BME280;41326;45.302;-122.946;2022-07-26T08:06:02;100369.71;;;20.59;45.62
55460;BME280;41326;45.302;-122.946;2022-07-26T08:08:33;100375.11;;;20.43;45.33
55460;BME280;41326;45.302;-122.946;2022-07-26T08:11:03;100376.98;;;20.25;45.52
55460;BME280;41326;45.302;-122.946;2022-07-26T08:13:34;100379.70;;;20.06;45.44
55460;BME280;41326;45.302;-122.946;2022-07-26T08:16:04;100379.46;;;20.10;46.12
55460;BME280;41326;45.302;-122.946;2022-07-26T08:18:34;100381.92;;;20.18;46.78
55460;BME280;41326;45.302;-122.946;2022-07-26T08:21:05;100381.81;;;20.32;46.75
55460;BME280;41326;45.302;-122.946;2022-07-26T08:23:35;100379.57;;;20.41;46.77
55460;BME280;41326;45.302;-122.946;2022-07-26T08:26:05;100380.00;;;20.56;46.69
55460;BME280;41326;45.302;-122.946;2022-07-26T08:28:35;100378.22;;;20.67;46.56
55460;BME280;41326;45.302;-122.946;2022-07-26T08:31:06;100379.99;;;20.72;46.65
55460;BME280;41326;45.302;-122.946;2022-07-26T08:33:36;100382.10;;;20.77;47.17
55460;BME280;41326;45.302;-122.946;2022-07-26T08:36:06;100380.98;;;20.79;47.92
55460;BME280;41326;45.302;-122.946;2022-07-26T08:38:37;100382.53;;;20.78;48.23
55460;BME280;41326;45.302;-122.946;2022-07-26T08:41:07;100378.21;;;20.78;48.36
55460;BME280;41326;45.302;-122.946;2022-07-26T08:43:38;100380.32;;;20.82;48.40
55460;BME280;41326;45.302;-122.946;2022-07-26T08:46:08;100382.44;;;20.89;48.39
55460;BME280;41326;45.302;-122.946;2022-07-26T08:48:38;100384.80;;;20.95;48.39
55460;BME280;41326;45.302;-122.946;2022-07-26T08:51:10;100386.25;;;20.99;48.39
55460;BME280;41326;45.302;-122.946;2022-07-26T08:53:40;100386.87;;;21.00;48.93
55460;BME280;41326;45.302;-122.946;2022-07-26T08:56:09;100389.19;;;21.03;49.63
55460;BME280;41326;45.302;-122.946;2022-07-26T08:58:40;100389.60;;;21.06;49.53
55460;BME280;41326;45.302;-122.946;2022-07-26T09:01:11;100390.79;;;21.10;49.47
55460;BME280;41326;45.302;-122.946;2022-07-26T09:03:40;100393.72;;;21.10;49.49
55460;BME280;41326;45.302;-122.946;2022-07-26T09:06:15;100394.90;;;21.12;49.55
55460;BME280;41326;45.302;-122.946;2022-07-26T09:08:41;100394.34;;;21.14;49.54
55460;BME280;41326;45.302;-122.946;2022-07-26T09:13:50;100398.94;;;21.17;50.11
55460;BME280;41326;45.302;-122.946;2022-07-26T09:16:15;100397.95;;;21.20;50.50
55460;BME280;41326;45.302;-122.946;2022-07-26T09:18:42;100399.00;;;21.16;50.71
55460;BME280;41326;45.302;-122.946;2022-07-26T09:23:44;100405.92;;;21.15;50.81
55460;BME280;41326;45.302;-122.946;2022-07-26T09:26:13;100405.52;;;21.13;50.91
55460;BME280;41326;45.302;-122.946;2022-07-26T09:28:43;100407.73;;;21.17;50.17
55460;BME280;41326;45.302;-122.946;2022-07-26T09:31:16;100409.96;;;21.03;48.09
55460;BME280;41326;45.302;-122.946;2022-07-26T09:33:49;100410.37;;;20.78;46.68
55460;BME280;41326;45.302;-122.946;2022-07-26T09:36:15;100416.02;;;20.71;48.72
55460;BME280;41326;45.302;-122.946;2022-07-26T09:38:46;100419.37;;;20.74;49.31
55460;BME280;41326;45.302;-122.946;2022-07-26T09:41:19;100421.17;;;20.82;49.36
55460;BME280;41326;45.302;-122.946;2022-07-26T09:43:46;100424.29;;;20.87;49.43
55460;BME280;41326;45.302;-122.946;2022-07-26T09:46:16;100426.89;;;20.92;49.46
55460;BME280;41326;45.302;-122.946;2022-07-26T09:48:47;100428.82;;;21.00;49.35
55460;BME280;41326;45.302;-122.946;2022-07-26T09:53:49;100431.58;;;21.01;50.12
55460;BME280;41326;45.302;-122.946;2022-07-26T09:56:18;100429.55;;;21.02;50.76
55460;BME280;41326;45.302;-122.946;2022-07-26T09:58:48;100429.36;;;21.03;50.91
55460;BME280;41326;45.302;-122.946;2022-07-26T10:01:18;100431.42;;;21.03;50.97
55460;BME280;41326;45.302;-122.946;2022-07-26T10:03:48;100433.30;;;21.04;51.04
55460;BME280;41326;45.302;-122.946;2022-07-26T10:06:19;100434.16;;;21.05;51.09
55460;BME280;41326;45.302;-122.946;2022-07-26T10:08:48;100436.91;;;21.14;50.91
55460;BME280;41326;45.302;-122.946;2022-07-26T10:11:19;100436.81;;;21.14;50.99
55460;BME280;41326;45.302;-122.946;2022-07-26T10:13:49;100437.18;;;21.16;51.46
55460;BME280;41326;45.302;-122.946;2022-07-26T10:16:27;100435.97;;;21.16;51.98
55460;BME280;41326;45.302;-122.946;2022-07-26T10:18:51;100436.49;;;21.15;52.11
55460;BME280;41326;45.302;-122.946;2022-07-26T10:21:23;100436.91;;;21.10;52.24
55460;BME280;41326;45.302;-122.946;2022-07-26T10:23:52;100432.51;;;21.10;52.35
55460;BME280;41326;45.302;-122.946;2022-07-26T10:28:52;100434.64;;;21.10;52.42
55460;BME280;41326;45.302;-122.946;2022-07-26T10:31:27;100435.34;;;21.14;52.33
55460;BME280;41326;45.302;-122.946;2022-07-26T10:33:54;100438.25;;;21.15;52.12
55460;BME280;41326;45.302;-122.946;2022-07-26T10:36:28;100433.72;;;21.06;49.39
55460;BME280;41326;45.302;-122.946;2022-07-26T10:38:59;100433.99;;;20.88;47.35
55460;BME280;41326;45.302;-122.946;2022-07-26T10:41:32;100439.26;;;20.61;47.77
55460;BME280;41326;45.302;-122.946;2022-07-26T10:46:28;100446.28;;;20.61;50.49
55460;BME280;41326;45.302;-122.946;2022-07-26T10:49:00;100443.14;;;20.70;50.45
55460;BME280;41326;45.302;-122.946;2022-07-26T10:51:30;100443.93;;;20.78;50.42
55460;BME280;41326;45.302;-122.946;2022-07-26T10:54:00;100441.96;;;20.83;50.88
55460;BME280;41326;45.302;-122.946;2022-07-26T10:56:26;100444.45;;;20.85;51.63
55460;BME280;41326;45.302;-122.946;2022-07-26T10:58:56;100446.07;;;20.86;51.68
55460;BME280;41326;45.302;-122.946;2022-07-26T11:01:31;100445.56;;;20.89;51.63
55460;BME280;41326;45.302;-122.946;2022-07-26T11:03:56;100445.81;;;20.91;51.65
55460;BME280;41326;45.302;-122.946;2022-07-26T11:06:27;100452.36;;;20.90;51.74
55460;BME280;41326;45.302;-122.946;2022-07-26T11:08:57;100453.96;;;20.93;51.69
55460;BME280;41326;45.302;-122.946;2022-07-26T11:11:31;100455.81;;;20.91;51.86
55460;BME280;41326;45.302;-122.946;2022-07-26T11:16:27;100458.16;;;20.96;52.86
55460;BME280;41326;45.302;-122.946;2022-07-26T11:18:57;100462.56;;;20.94;52.88
55460;BME280;41326;45.302;-122.946;2022-07-26T11:21:28;100465.87;;;20.95;52.85
55460;BME280;41326;45.302;-122.946;2022-07-26T11:24:00;100469.08;;;20.94;52.96
55460;BME280;41326;45.302;-122.946;2022-07-26T11:26:28;100466.94;;;20.99;52.77
55460;BME280;41326;45.302;-122.946;2022-07-26T11:29:01;100466.26;;;21.00;52.81
55460;BME280;41326;45.302;-122.946;2022-07-26T11:32:35;100464.83;;;21.07;52.86
55460;BME280;41326;45.302;-122.946;2022-07-26T11:35:06;100463.74;;;21.06;53.44
55460;BME280;41326;45.302;-122.946;2022-07-26T11:37:36;100464.28;;;21.02;53.88
55460;BME280;41326;45.302;-122.946;2022-07-26T11:40:06;100461.17;;;21.01;53.88
55460;BME280;41326;45.302;-122.946;2022-07-26T11:42:36;100462.94;;;20.99;53.94
55460;BME280;41326;45.302;-122.946;2022-07-26T11:45:08;100469.65;;;20.96;54.07
55460;BME280;41326;45.302;-122.946;2022-07-26T11:47:38;100468.14;;;21.00;54.00
55460;BME280;41326;45.302;-122.946;2022-07-26T11:50:10;100466.13;;;21.03;53.88
55460;BME280;41326;45.302;-122.946;2022-07-26T11:52:38;100470.88;;;21.00;54.37
55460;BME280;41326;45.302;-122.946;2022-07-26T11:55:09;100470.07;;;21.00;54.69
55460;BME280;41326;45.302;-122.946;2022-07-26T11:57:39;100468.88;;;20.99;54.91
55460;BME280;41326;45.302;-122.946;2022-07-26T12:00:11;100470.82;;;21.00;54.88
55460;BME280;41326;45.302;-122.946;2022-07-26T12:02:40;100473.27;;;21.02;54.85
55460;BME280;41326;45.302;-122.946;2022-07-26T12:05:15;100474.38;;;21.01;54.85
55460;BME280;41326;45.302;-122.946;2022-07-26T12:10:15;100484.33;;;21.01;54.93
55460;BME280;41326;45.302;-122.946;2022-07-26T12:12:42;100488.76;;;21.05;54.98
55460;BME280;41326;45.302;-122.946;2022-07-26T12:15:12;100493.71;;;21.04;55.36
55460;BME280;41326;45.302;-122.946;2022-07-26T12:20:16;100495.03;;;20.99;55.66
55460;BME280;41326;45.302;-122.946;2022-07-26T12:25:22;100501.17;;;21.00;55.68
55460;BME280;41326;45.302;-122.946;2022-07-26T12:27:47;100498.33;;;21.04;55.61
55460;BME280;41326;45.302;-122.946;2022-07-26T12:30:17;100500.77;;;21.04;55.57
55460;BME280;41326;45.302;-122.946;2022-07-26T12:32:44;100505.79;;;21.02;55.76
55460;BME280;41326;45.302;-122.946;2022-07-26T12:35:15;100505.89;;;21.02;55.91
55460;BME280;41326;45.302;-122.946;2022-07-26T12:37:49;100509.74;;;21.03;56.02
55460;BME280;41326;45.302;-122.946;2022-07-26T12:40:16;100511.28;;;21.02;56.10
55460;BME280;41326;45.302;-122.946;2022-07-26T12:45:16;100518.50;;;20.99;56.25
55460;BME280;41326;45.302;-122.946;2022-07-26T12:47:46;100518.62;;;20.98;56.29
55460;BME280;41326;45.302;-122.946;2022-07-26T12:50:18;100516.23;;;21.00;56.23
55460;BME280;41326;45.302;-122.946;2022-07-26T12:52:46;100519.05;;;21.02;56.26
55460;BME280;41326;45.302;-122.946;2022-07-26T12:55:17;100520.34;;;21.02;56.37
55460;BME280;41326;45.302;-122.946;2022-07-26T12:57:46;100520.38;;;21.03;56.39
55460;BME280;41326;45.302;-122.946;2022-07-26T13:00:16;100524.07;;;21.00;56.49
55460;BME280;41326;45.302;-122.946;2022-07-26T13:02:47;100523.16;;;21.00;56.42
55460;BME280;41326;45.302;-122.946;2022-07-26T13:05:17;100527.64;;;20.98;56.53